TimeEST,TemperatureF,Dew PointF,Humidity,Sea Level PressureIn,VisibilityMPH,Wind Direction,Wind SpeedMPH,Gust SpeedMPH,PrecipitationIn,Events,Conditions,WindDirDegrees,DateUTC
12:53 AM,48.9,37.0,64,30.14,7.0,South,3.5,-,N/A,,Scattered Clouds,170,2012-11-20 05:53:00
1:53 AM,46.0,37.0,71,30.13,6.0,Calm,Calm,-,N/A,,Haze,0,2012-11-20 06:53:00
2:53 AM,48.0,37.9,68,30.12,6.0,Calm,Calm,-,N/A,,Haze,0,2012-11-20 07:53:00
3:53 AM,46.9,39.0,74,30.11,6.0,Calm,Calm,-,N/A,,Haze,0,2012-11-20 08:53:00
4:53 AM,46.9,41.0,80,30.10,5.0,Calm,Calm,-,0.00,,Haze,0,2012-11-20 09:53:00
5:53 AM,46.9,42.1,83,30.09,5.0,SE,4.6,-,N/A,,Haze,140,2012-11-20 10:53:00
6:53 AM,48.0,42.1,80,30.09,7.0,SSE,4.6,-,0.00,,Overcast,160,2012-11-20 11:53:00
7:53 AM,48.0,42.1,80,30.10,7.0,Calm,Calm,-,N/A,,Overcast,0,2012-11-20 12:53:00
8:53 AM,48.9,42.1,77,30.11,5.0,Calm,Calm,-,N/A,,Haze,0,2012-11-20 13:53:00
9:53 AM,48.9,43.0,80,30.11,5.0,Calm,Calm,-,N/A,,Haze,0,2012-11-20 14:53:00
10:26 AM,50.0,42.8,76,30.11,5.0,Calm,Calm,-,N/A,,Haze,0,2012-11-20 15:26:00
10:53 AM,50.0,44.1,80,30.12,4.0,Calm,Calm,-,N/A,,Haze,0,2012-11-20 15:53:00
11:53 AM,51.1,42.1,71,30.10,5.0,Calm,Calm,-,N/A,,Haze,0,2012-11-20 16:53:00
12:17 PM,51.8,42.8,71,30.08,5.0,Calm,Calm,-,N/A,,Haze,0,2012-11-20 17:17:00
12:53 PM,51.1,43.0,74,30.08,4.0,Calm,Calm,-,N/A,,Haze,0,2012-11-20 17:53:00
1:53 PM,50.0,46.0,86,30.10,2.5,WNW,5.8,-,N/A,,Overcast,290,2012-11-20 18:53:00
2:09 PM,50.0,46.4,87,30.08,2.5,WNW,3.5,-,N/A,,Overcast,300,2012-11-20 19:09:00
2:53 PM,50.0,46.0,86,30.09,2.0,WSW,3.5,-,N/A,,Overcast,240,2012-11-20 19:53:00
3:13 PM,50.0,46.4,87,30.08,2.0,WSW,3.5,-,N/A,,Overcast,250,2012-11-20 20:13:00
3:28 PM,50.0,44.6,82,30.09,2.0,NW,3.5,-,N/A,,Haze,310,2012-11-20 20:28:00
3:53 PM,50.0,46.0,86,30.10,2.0,Calm,Calm,-,N/A,,Overcast,0,2012-11-20 20:53:00
4:53 PM,48.9,46.0,90,30.12,1.5,NW,4.6,-,N/A,,Overcast,310,2012-11-20 21:53:00
5:03 PM,48.2,46.4,93,30.11,1.5,Calm,Calm,-,N/A,,Overcast,0,2012-11-20 22:03:00
5:39 PM,48.2,46.4,93,30.11,2.0,Calm,Calm,-,N/A,,Overcast,0,2012-11-20 22:39:00
5:53 PM,48.0,46.0,93,30.13,2.0,Calm,Calm,-,N/A,,Overcast,0,2012-11-20 22:53:00
6:53 PM,48.0,46.0,93,30.14,1.8,Calm,Calm,-,N/A,,Scattered Clouds,0,2012-11-20 23:53:00
7:07 PM,46.4,44.6,93,30.13,1.2,Calm,Calm,-,N/A,,Scattered Clouds,0,2012-11-21 00:07:00
7:14 PM,46.4,44.6,93,30.13,0.8,Calm,Calm,-,N/A,,Mostly Cloudy,0,2012-11-21 00:14:00
7:22 PM,46.4,44.6,93,30.13,0.5,Calm,Calm,-,N/A,Fog,Fog,0,2012-11-21 00:22:00
7:28 PM,46.4,44.6,93,30.14,1.0,Calm,Calm,-,N/A,,Overcast,0,2012-11-21 00:28:00
7:53 PM,45.0,45.0,100,30.15,1.0,Calm,Calm,-,N/A,,Overcast,0,2012-11-21 00:53:00
8:02 PM,44.6,44.6,100,30.14,0.8,Calm,Calm,-,N/A,,Overcast,0,2012-11-21 01:02:00
8:17 PM,46.4,46.4,100,30.14,1.0,Calm,Calm,-,N/A,,Overcast,0,2012-11-21 01:17:00
8:53 PM,46.0,46.0,100,30.16,1.2,Calm,Calm,-,N/A,,Overcast,0,2012-11-21 01:53:00
9:02 PM,46.4,46.4,100,30.15,1.5,Calm,Calm,-,N/A,,Overcast,0,2012-11-21 02:02:00
9:19 PM,46.4,46.4,100,30.16,1.2,Calm,Calm,-,N/A,,Overcast,0,2012-11-21 02:19:00
9:53 PM,46.0,45.0,96,30.17,1.5,Calm,Calm,-,N/A,,Overcast,0,2012-11-21 02:53:00
10:18 PM,46.4,46.4,100,30.17,1.2,Calm,Calm,-,N/A,,Overcast,0,2012-11-21 03:18:00
10:53 PM,46.9,46.0,97,30.17,1.2,Calm,Calm,-,N/A,,Overcast,0,2012-11-21 03:53:00
11:53 PM,46.0,45.0,96,30.17,1.2,Calm,Calm,-,N/A,,Overcast,0,2012-11-21 04:53:00